Time;durP1;ratioP1;P1;durP2;ratioP2;P2;SDS_P1;SDS_P2;PMS_P1;PMS_P2;Temp;Humidity;BMP_temperature;BMP_pressure;BME280_temperature;BME280_humidity;BME280_pressure;Samples;Min_cycle;Max_cycle;Signal;HPM_P1;HPM_P2
2023/06/06 00:01:02;;;;;;;0.70;0.70;;;18.70;91.90;;;;;;5068360;28;20712;-62
2023/06/06 00:03:30;;;;;;;0.73;0.60;;;18.70;92.50;;;;;;5070144;28;20663;-62
2023/06/06 00:05:59;;;;;;;0.80;0.80;;;18.70;92.40;;;;;;5069633;28;20219;-62
2023/06/06 00:08:28;;;;;;;0.60;0.60;;;18.70;92.30;;;;;;5069777;28;20203;-62
2023/06/06 00:10:56;;;;;;;1.13;1.02;;;18.70;92.50;;;;;;5069792;28;20220;-63
2023/06/06 00:13:27;;;;;;;0.70;0.60;;;18.70;92.80;;;;;;5070126;28;20658;-62
2023/06/06 00:15:57;;;;;;;1.33;1.13;;;18.60;92.70;;;;;;5069514;28;20609;-62
2023/06/06 00:18:26;;;;;;;0.70;0.55;;;18.60;93.10;;;;;;5075375;28;20271;-62
2023/06/06 00:20:55;;;;;;;0.60;0.57;;;18.50;93.30;;;;;;5069887;28;20212;-62
2023/06/06 00:23:23;;;;;;;0.80;0.60;;;18.50;93.30;;;;;;5070189;28;20203;-62
2023/06/06 00:25:52;;;;;;;0.60;0.50;;;18.30;93.40;;;;;;5069669;28;20224;-62
2023/06/06 00:28:20;;;;;;;0.80;0.80;;;18.30;94.00;;;;;;5069759;28;20216;-62
2023/06/06 00:30:48;;;;;;;0.95;0.70;;;18.20;94.40;;;;;;5069576;28;20717;-62
2023/06/06 00:33:18;;;;;;;1.13;0.80;;;18.10;94.70;;;;;;5070001;28;20204;-62
2023/06/06 00:35:45;;;;;;;2.22;0.60;;;18.00;95.00;;;;;;5070061;28;20215;-62
2023/06/06 00:38:13;;;;;;;0.70;0.60;;;18.00;95.20;;;;;;5069622;28;20200;-62
2023/06/06 00:40:41;;;;;;;0.77;0.50;;;17.90;95.40;;;;;;5069525;28;20666;-62
2023/06/06 00:43:09;;;;;;;2.88;0.85;;;17.90;95.70;;;;;;5070018;28;20582;-62
2023/06/06 00:45:37;;;;;;;0.60;0.50;;;17.90;96.30;;;;;;5069091;28;20755;-62
2023/06/06 00:48:06;;;;;;;2.70;0.90;;;18.00;96.40;;;;;;5069282;28;20212;-63
2023/06/06 00:50:36;;;;;;;0.70;0.60;;;18.00;96.90;;;;;;5069674;28;20195;-63
2023/06/06 00:53:04;;;;;;;0.70;0.60;;;18.00;96.80;;;;;;5076249;28;20253;-63
2023/06/06 00:55:33;;;;;;;0.60;0.50;;;18.00;97.00;;;;;;5072526;28;20273;-62
2023/06/06 00:58:01;;;;;;;0.80;0.60;;;17.90;97.30;;;;;;5072557;28;20207;-63
2023/06/06 01:00:32;;;;;;;0.80;0.70;;;17.90;97.90;;;;;;5073291;28;20629;-62
2023/06/06 01:03:03;;;;;;;0.85;0.70;;;17.80;98.30;;;;;;5073117;28;20290;-62
2023/06/06 01:05:31;;;;;;;1.15;1.05;;;17.70;98.80;;;;;;5072986;28;20307;-63
2023/06/06 01:08:01;;;;;;;1.13;0.95;;;17.70;99.30;;;;;;5073060;28;20679;-62
2023/06/06 01:10:30;;;;;;;0.70;0.63;;;17.70;99.80;;;;;;5072643;28;20203;-63
2023/06/06 01:13:07;;;;;;;0.70;0.60;;;17.80;99.90;;;;;;5072987;28;20199;-63
2023/06/06 01:15:42;;;;;;;0.70;0.70;;;17.80;99.70;;;;;;5072742;28;20227;-63
2023/06/06 01:18:12;;;;;;;1.15;1.05;;;17.90;99.90;;;;;;5065741;28;20216;-63
2023/06/06 01:20:41;;;;;;;0.98;0.75;;;17.90;99.90;;;;;;5072395;28;20286;-62
2023/06/06 01:23:12;;;;;;;1.10;1.00;;;17.90;99.90;;;;;;5072857;28;20695;-63
2023/06/06 01:25:48;;;;;;;0.80;0.50;;;18.00;99.90;;;;;;5073238;28;20227;-63
2023/06/06 01:28:16;;;;;;;1.83;1.05;;;17.90;99.90;;;;;;5072542;28;20282;-63
2023/06/06 01:30:46;;;;;;;1.02;0.65;;;17.90;99.90;;;;;;5072270;28;20249;-63
2023/06/06 01:33:25;;;;;;;1.17;0.70;;;17.90;99.90;;;;;;5072588;28;20204;-63
2023/06/06 01:36:03;;;;;;;0.73;0.60;;;17.90;99.90;;;;;;5072320;28;20223;-62
2023/06/06 01:38:37;;;;;;;0.60;0.55;;;18.00;99.90;;;;;;5072468;28;20290;-63
2023/06/06 01:41:06;;;;;;;0.70;0.70;;;18.00;99.90;;;;;;5064323;28;20203;-63
2023/06/06 01:43:35;;;;;;;1.20;1.13;;;18.00;99.90;;;;;;5079358;28;20207;-63
2023/06/06 01:46:03;;;;;;;0.82;0.82;;;17.90;99.90;;;;;;5071693;28;20278;-63
2023/06/06 01:48:33;;;;;;;1.02;0.90;;;17.90;99.90;;;;;;5071818;28;20270;-63
2023/06/06 01:51:01;;;;;;;0.80;0.65;;;17.80;99.90;;;;;;5072184;28;20216;-63
2023/06/06 01:53:29;;;;;;;0.70;0.60;;;17.80;99.90;;;;;;5072478;28;20199;-63
2023/06/06 01:55:58;;;;;;;1.35;1.00;;;17.80;99.90;;;;;;5071813;28;20223;-63
2023/06/06 01:58:26;;;;;;;0.80;0.73;;;17.80;99.90;;;;;;5071663;28;20913;-63
2023/06/06 02:00:54;;;;;;;1.30;0.77;;;17.80;99.90;;;;;;5078945;28;20218;-63
2023/06/06 02:03:22;;;;;;;1.10;1.00;;;17.80;99.90;;;;;;5072019;28;20198;-62
2023/06/06 02:05:50;;;;;;;0.60;0.50;;;17.80;99.90;;;;;;5070491;28;20273;-62
2023/06/06 02:08:19;;;;;;;1.10;0.70;;;17.80;99.90;;;;;;5071657;28;20214;-63
2023/06/06 02:10:46;;;;;;;1.50;0.70;;;17.80;99.90;;;;;;5071765;28;20213;-62
2023/06/06 02:13:16;;;;;;;0.85;0.60;;;17.90;99.90;;;;;;5071885;28;20223;-62
2023/06/06 02:15:44;;;;;;;1.00;0.98;;;17.90;99.90;;;;;;5071050;28;20285;-62
2023/06/06 02:18:12;;;;;;;1.42;1.10;;;17.90;99.90;;;;;;5071453;28;20214;-62
2023/06/06 02:20:40;;;;;;;0.73;0.73;;;17.80;99.90;;;;;;5071874;28;20207;-62
2023/06/06 02:23:08;;;;;;;0.70;0.68;;;17.80;99.90;;;;;;5071914;28;20317;-62
2023/06/06 02:25:37;;;;;;;4.30;1.05;;;17.80;99.90;;;;;;5071186;28;20231;-62
2023/06/06 02:28:07;;;;;;;1.23;1.13;;;17.70;99.90;;;;;;5071024;28;20241;-62
2023/06/06 02:30:36;;;;;;;0.70;0.60;;;17.70;99.90;;;;;;5071613;28;20203;-62
2023/06/06 02:33:06;;;;;;;1.33;1.20;;;17.60;99.90;;;;;;5072782;28;20697;-63
2023/06/06 02:35:34;;;;;;;1.27;1.17;;;17.60;99.90;;;;;;5075746;28;20220;-62
2023/06/06 02:38:02;;;;;;;0.90;0.70;;;17.50;99.90;;;;;;5070772;28;20206;-62
2023/06/06 02:40:30;;;;;;;1.10;0.63;;;17.50;99.90;;;;;;5071341;28;20211;-62
2023/06/06 02:42:59;;;;;;;0.90;0.70;;;17.40;99.90;;;;;;5071070;28;20213;-62
2023/06/06 02:45:27;;;;;;;1.92;1.23;;;17.40;99.90;;;;;;5070531;28;20289;-65
2023/06/06 02:47:56;;;;;;;1.13;0.90;;;17.30;99.90;;;;;;5070514;28;20269;-63
2023/06/06 02:50:28;;;;;;;1.10;0.70;;;17.30;99.90;;;;;;5071540;28;20668;-63
2023/06/06 02:52:56;;;;;;;0.68;0.50;;;17.30;99.90;;;;;;5071009;28;20224;-62
2023/06/06 02:55:24;;;;;;;0.70;0.60;;;17.30;99.90;;;;;;5070599;28;20233;-63
2023/06/06 02:57:51;;;;;;;0.90;0.63;;;17.40;99.90;;;;;;5070402;28;20199;-63
2023/06/06 03:00:21;;;;;;;1.13;0.80;;;17.30;99.90;;;;;;5071074;28;20205;-63
2023/06/06 03:02:49;;;;;;;0.80;0.80;;;17.40;99.90;;;;;;5070599;28;20199;-62
2023/06/06 03:05:18;;;;;;;0.88;0.75;;;17.30;99.90;;;;;;5070468;28;20233;-62
2023/06/06 03:07:46;;;;;;;0.95;0.68;;;17.30;99.90;;;;;;5077696;28;20210;-63
2023/06/06 03:10:14;;;;;;;2.35;0.70;;;17.30;99.90;;;;;;5071009;28;20203;-62
2023/06/06 03:12:42;;;;;;;0.80;0.75;;;17.30;99.90;;;;;;5070731;28;20214;-62
2023/06/06 03:15:11;;;;;;;0.90;0.77;;;17.30;99.90;;;;;;5062034;28;20231;-63
2023/06/06 03:17:40;;;;;;;1.00;0.90;;;17.30;99.90;;;;;;5069958;28;20202;-63
2023/06/06 03:20:09;;;;;;;0.68;0.63;;;17.20;99.90;;;;;;5070721;28;20199;-63
2023/06/06 03:22:38;;;;;;;1.02;0.93;;;17.20;99.90;;;;;;5070880;28;20625;-64
2023/06/06 03:25:07;;;;;;;1.00;0.60;;;17.20;99.90;;;;;;5070524;28;20231;-62
2023/06/06 03:27:35;;;;;;;0.70;0.70;;;17.20;99.90;;;;;;5070401;28;20195;-62
2023/06/06 03:30:06;;;;;;;0.85;0.80;;;17.10;99.90;;;;;;5070249;28;20218;-63
2023/06/06 03:32:34;;;;;;;1.05;0.95;;;17.10;99.90;;;;;;5070490;28;20223;-62
2023/06/06 03:35:03;;;;;;;0.80;0.70;;;17.00;99.90;;;;;;5069808;28;20223;-63
2023/06/06 03:37:31;;;;;;;0.88;0.60;;;17.00;99.90;;;;;;5070176;28;20194;-62
2023/06/06 03:40:00;;;;;;;0.98;0.90;;;17.00;99.90;;;;;;5070167;28;20211;-62
2023/06/06 03:42:28;;;;;;;1.10;1.00;;;17.00;99.90;;;;;;5078134;28;20195;-62
2023/06/06 03:44:56;;;;;;;1.00;0.90;;;17.00;99.90;;;;;;5069478;28;20242;-63
2023/06/06 03:47:24;;;;;;;1.40;0.80;;;17.10;99.90;;;;;;5069779;28;20214;-62
2023/06/06 03:49:52;;;;;;;1.38;1.27;;;17.10;99.90;;;;;;5061427;28;20207;-63
2023/06/06 03:52:20;;;;;;;0.68;0.60;;;17.10;99.90;;;;;;5064576;28;20216;-63
2023/06/06 03:54:48;;;;;;;0.80;0.80;;;17.10;99.90;;;;;;5069739;28;20768;-64
2023/06/06 03:57:18;;;;;;;0.98;0.88;;;17.10;99.90;;;;;;5070058;28;20211;-62
2023/06/06 03:59:46;;;;;;;0.70;0.60;;;17.20;99.90;;;;;;5070998;28;20209;-63
2023/06/06 04:02:14;;;;;;;0.90;0.80;;;17.20;99.90;;;;;;5069782;28;20286;-64
2023/06/06 04:04:42;;;;;;;0.70;0.57;;;17.20;99.90;;;;;;5069713;28;20225;-64
2023/06/06 04:07:10;;;;;;;2.25;0.70;;;17.10;99.90;;;;;;5069412;28;20208;-63
2023/06/06 04:09:39;;;;;;;0.70;0.70;;;17.10;99.90;;;;;;5070052;28;20206;-63
2023/06/06 04:12:08;;;;;;;0.60;0.60;;;17.20;99.90;;;;;;5069820;28;20242;-63
2023/06/06 04:14:38;;;;;;;1.17;0.88;;;17.30;99.90;;;;;;5069438;28;20227;-63
2023/06/06 04:17:07;;;;;;;0.70;0.60;;;17.30;99.90;;;;;;5069859;28;20751;-62
2023/06/06 04:19:36;;;;;;;1.00;0.60;;;17.30;99.90;;;;;;5068579;28;20290;-63
2023/06/06 04:22:05;;;;;;;0.70;0.70;;;17.30;99.90;;;;;;5067750;28;20552;-62
2023/06/06 04:24:33;;;;;;;0.70;0.70;;;17.30;99.90;;;;;;5065254;28;20223;-62
2023/06/06 04:27:03;;;;;;;0.60;0.60;;;17.30;99.90;;;;;;5068187;28;20203;-62
2023/06/06 04:29:33;;;;;;;0.80;0.77;;;17.40;99.90;;;;;;5070621;28;20293;-63
2023/06/06 04:32:04;;;;;;;0.70;0.60;;;17.40;99.90;;;;;;5072179;28;20696;-63
2023/06/06 04:34:33;;;;;;;0.90;0.90;;;17.40;99.90;;;;;;5072365;28;20597;-63
2023/06/06 04:37:03;;;;;;;0.63;0.60;;;17.40;99.90;;;;;;5071876;28;20219;-63
2023/06/06 04:39:32;;;;;;;0.90;0.70;;;17.40;99.90;;;;;;5071923;28;20206;-63
2023/06/06 04:42:02;;;;;;;0.60;0.60;;;17.50;99.90;;;;;;5072270;28;20219;-63
2023/06/06 04:44:30;;;;;;;1.10;0.80;;;17.60;99.90;;;;;;5071996;28;20237;-63
2023/06/06 04:47:00;;;;;;;1.00;0.90;;;17.60;99.90;;;;;;5072160;28;20208;-65
2023/06/06 04:49:35;;;;;;;1.63;0.88;;;17.70;99.90;;;;;;5072659;28;20684;-64
2023/06/06 04:52:05;;;;;;;2.00;1.27;;;17.80;99.90;;;;;;5072311;28;20210;-63
2023/06/06 04:54:34;;;;;;;0.70;0.60;;;17.90;99.90;;;;;;5071581;28;20729;-63
2023/06/06 04:57:02;;;;;;;0.80;0.65;;;18.00;99.90;;;;;;5071192;28;20210;-64
2023/06/06 04:59:32;;;;;;;0.80;0.75;;;18.10;99.90;;;;;;5073249;28;20216;-63
2023/06/06 05:02:01;;;;;;;0.60;0.60;;;18.10;99.90;;;;;;5073478;28;20226;-63
2023/06/06 05:04:31;;;;;;;0.90;0.50;;;18.10;99.90;;;;;;5072468;28;20222;-64
2023/06/06 05:07:00;;;;;;;0.85;0.75;;;18.20;99.90;;;;;;5071244;28;20208;-64
2023/06/06 05:09:28;;;;;;;1.10;0.95;;;18.30;99.90;;;;;;5072677;28;20200;-64
2023/06/06 05:11:56;;;;;;;0.65;0.50;;;18.30;99.90;;;;;;5072771;28;20218;-64
2023/06/06 05:14:24;;;;;;;0.80;0.77;;;18.30;99.90;;;;;;5064142;28;20224;-63
2023/06/06 05:16:52;;;;;;;0.70;0.50;;;18.40;99.90;;;;;;5072723;28;20207;-63
2023/06/06 05:19:21;;;;;;;1.30;0.88;;;18.50;99.90;;;;;;5065128;28;20239;-63
2023/06/06 05:21:51;;;;;;;2.53;0.85;;;18.50;99.90;;;;;;5073110;28;20203;-63
2023/06/06 05:24:19;;;;;;;0.65;0.65;;;18.50;99.90;;;;;;5072718;28;20235;-63
2023/06/06 05:26:47;;;;;;;0.60;0.50;;;18.60;99.90;;;;;;5072778;28;20605;-63
2023/06/06 05:29:15;;;;;;;0.70;0.70;;;18.60;99.90;;;;;;5073116;28;20205;-64
2023/06/06 05:31:43;;;;;;;0.98;0.60;;;18.60;99.90;;;;;;5072746;28;20196;-64
2023/06/06 05:34:11;;;;;;;3.80;1.05;;;18.60;99.90;;;;;;5072146;28;20281;-62
2023/06/06 05:36:39;;;;;;;0.90;0.70;;;18.60;99.90;;;;;;5072303;28;20215;-63
2023/06/06 05:39:08;;;;;;;0.70;0.50;;;18.70;99.90;;;;;;5072585;28;20301;-64
2023/06/06 05:41:37;;;;;;;0.60;0.50;;;18.80;99.90;;;;;;5072808;28;20195;-64
2023/06/06 05:44:05;;;;;;;0.95;0.90;;;18.80;99.90;;;;;;5072079;28;20237;-64
2023/06/06 05:46:33;;;;;;;0.60;0.50;;;18.80;99.90;;;;;;5071990;28;20211;-63
2023/06/06 05:49:01;;;;;;;1.40;1.30;;;18.90;99.90;;;;;;5072238;28;20588;-64
2023/06/06 05:51:30;;;;;;;1.02;0.63;;;18.80;99.90;;;;;;5072487;28;20608;-65
2023/06/06 05:53:58;;;;;;;1.77;0.80;;;18.80;99.90;;;;;;5072143;28;20219;-64
2023/06/06 05:56:44;;;;;;;0.70;0.60;;;18.80;99.90;;;;;;5071709;28;20664;-63
2023/06/06 05:59:12;;;;;;;0.90;0.80;;;19.00;99.90;;;;;;5072210;28;20253;-64
2023/06/06 06:01:41;;;;;;;1.27;0.77;;;19.20;99.90;;;;;;5072335;28;20236;-64
2023/06/06 06:04:09;;;;;;;2.15;0.70;;;19.30;99.90;;;;;;5071768;28;20274;-63
2023/06/06 06:06:38;;;;;;;0.80;0.80;;;19.40;99.90;;;;;;5071627;28;20234;-64
2023/06/06 06:09:06;;;;;;;0.70;0.68;;;19.60;99.90;;;;;;5071948;28;20265;-65
2023/06/06 06:11:34;;;;;;;0.70;0.60;;;19.70;99.90;;;;;;5072243;28;20211;-64
2023/06/06 06:14:03;;;;;;;0.73;0.70;;;19.90;99.90;;;;;;5071660;28;20220;-64
2023/06/06 06:16:31;;;;;;;0.60;0.60;;;20.00;99.90;;;;;;5071310;28;20201;-63
2023/06/06 06:18:59;;;;;;;0.70;0.55;;;20.00;99.90;;;;;;5071677;28;20674;-64
2023/06/06 06:21:27;;;;;;;0.80;0.70;;;20.20;99.90;;;;;;5071863;28;20204;-63
2023/06/06 06:23:55;;;;;;;0.70;0.57;;;20.30;99.90;;;;;;5071575;28;20211;-64
2023/06/06 06:26:23;;;;;;;1.67;0.73;;;20.50;99.90;;;;;;5063248;28;20226;-64
2023/06/06 06:28:54;;;;;;;0.88;0.70;;;20.70;99.90;;;;;;5071873;28;20258;-64
2023/06/06 06:31:23;;;;;;;0.80;0.80;;;20.70;99.90;;;;;;5071683;28;20288;-64
2023/06/06 06:33:51;;;;;;;0.70;0.63;;;20.80;99.90;;;;;;5071641;28;20586;-64
2023/06/06 06:36:20;;;;;;;1.77;0.95;;;20.90;99.90;;;;;;5070452;28;20668;-64
2023/06/06 06:38:48;;;;;;;1.10;0.68;;;21.00;99.90;;;;;;5071589;28;20211;-64
2023/06/06 06:41:16;;;;;;;1.15;1.05;;;21.10;99.90;;;;;;5071274;28;23473;-64
2023/06/06 06:43:44;;;;;;;0.90;0.60;;;21.20;99.90;;;;;;5071789;28;20196;-64
2023/06/06 06:46:12;;;;;;;0.90;0.65;;;21.30;99.90;;;;;;5070813;28;20262;-64
2023/06/06 06:48:45;;;;;;;2.08;0.60;;;21.40;99.90;;;;;;5070878;28;20326;-64
2023/06/06 06:51:14;;;;;;;0.60;0.40;;;21.50;99.90;;;;;;5070982;28;20217;-64
2023/06/06 06:53:42;;;;;;;0.70;0.70;;;21.60;99.90;;;;;;5070987;28;20236;-65
2023/06/06 06:56:10;;;;;;;1.02;0.70;;;21.70;99.90;;;;;;5070823;28;20285;-64
2023/06/06 06:58:39;;;;;;;2.05;0.73;;;21.70;99.90;;;;;;5070981;28;20227;-65
2023/06/06 07:01:06;;;;;;;0.70;0.60;;;21.80;99.90;;;;;;5071459;28;20213;-64
2023/06/06 07:03:35;;;;;;;0.60;0.57;;;21.90;99.90;;;;;;5070768;28;20266;-65
2023/06/06 07:06:05;;;;;;;0.60;0.50;;;22.00;99.90;;;;;;5070524;28;20218;-64
2023/06/06 07:08:33;;;;;;;0.60;0.43;;;22.00;99.90;;;;;;5070923;28;20262;-63
2023/06/06 07:11:02;;;;;;;1.10;0.77;;;22.00;99.90;;;;;;5070808;28;20595;-64
2023/06/06 07:13:31;;;;;;;0.60;0.50;;;22.10;99.90;;;;;;5070593;28;20201;-64
2023/06/06 07:15:59;;;;;;;0.80;0.50;;;22.10;99.90;;;;;;5070429;28;20232;-64
2023/06/06 07:18:27;;;;;;;1.02;0.82;;;22.10;99.90;;;;;;5070446;28;20270;-64
2023/06/06 07:20:55;;;;;;;0.70;0.70;;;22.10;99.90;;;;;;5070438;28;20262;-64
2023/06/06 07:23:25;;;;;;;1.25;0.70;;;22.30;99.90;;;;;;5070435;28;20201;-64
2023/06/06 07:25:53;;;;;;;0.70;0.55;;;22.40;99.90;;;;;;5070570;28;20300;-64
2023/06/06 07:28:21;;;;;;;2.08;1.05;;;22.40;99.90;;;;;;5070161;28;20202;-63
2023/06/06 07:30:49;;;;;;;1.00;0.80;;;22.40;99.90;;;;;;5070890;28;20201;-64
2023/06/06 07:33:17;;;;;;;1.15;1.05;;;22.40;99.90;;;;;;5070445;28;20209;-64
2023/06/06 07:35:46;;;;;;;1.10;1.00;;;22.50;99.90;;;;;;5070287;28;20228;-64
2023/06/06 07:38:14;;;;;;;0.75;0.65;;;22.70;99.90;;;;;;5069992;28;20233;-64
2023/06/06 07:40:43;;;;;;;0.80;0.60;;;23.00;99.90;;;;;;5070446;28;20217;-63
2023/06/06 07:43:12;;;;;;;0.80;0.80;;;23.20;99.40;;;;;;5070646;28;20208;-64
2023/06/06 07:45:40;;;;;;;1.92;1.00;;;23.30;99.50;;;;;;5070027;28;20271;-64
2023/06/06 07:48:08;;;;;;;2.30;0.80;;;23.40;98.70;;;;;;5070023;28;20719;-64
2023/06/06 07:50:36;;;;;;;1.30;0.70;;;23.40;97.60;;;;;;5070673;28;20210;-64
2023/06/06 07:53:03;;;;;;;0.60;0.40;;;23.50;99.00;;;;;;5069999;28;20715;-64
2023/06/06 07:55:31;;;;;;;1.02;0.75;;;23.70;98.10;;;;;;5069907;28;20228;-64
2023/06/06 07:58:01;;;;;;;0.68;0.60;;;23.70;99.20;;;;;;5070071;28;20212;-64
2023/06/06 08:00:29;;;;;;;0.75;0.70;;;23.80;98.00;;;;;;5062840;28;20296;-64
2023/06/06 08:02:57;;;;;;;0.90;0.80;;;24.00;98.50;;;;;;5070463;28;20255;-64
2023/06/06 08:05:25;;;;;;;0.80;0.60;;;23.90;97.50;;;;;;5072966;28;20682;-64
2023/06/06 08:07:54;;;;;;;0.70;0.60;;;23.90;98.00;;;;;;5074117;28;20214;-64
2023/06/06 08:10:22;;;;;;;0.70;0.70;;;23.90;97.10;;;;;;5074364;28;20209;-64
2023/06/06 08:12:50;;;;;;;1.10;0.70;;;23.90;98.00;;;;;;5074063;28;20590;-64
2023/06/06 08:15:19;;;;;;;0.60;0.60;;;24.10;98.60;;;;;;5074008;28;20600;-64
2023/06/06 08:17:47;;;;;;;0.80;0.80;;;24.10;97.00;;;;;;5073838;28;20255;-64
2023/06/06 08:20:16;;;;;;;1.23;0.90;;;24.30;97.90;;;;;;5073656;28;20563;-64
2023/06/06 08:22:51;;;;;;;1.40;0.68;;;24.50;97.90;;;;;;5073928;28;20203;-64
2023/06/06 08:25:19;;;;;;;0.70;0.70;;;24.70;96.30;;;;;;5073720;28;20704;-65
2023/06/06 08:27:47;;;;;;;0.70;0.60;;;25.10;97.50;;;;;;5073677;28;20206;-64
2023/06/06 08:30:15;;;;;;;0.60;0.50;;;25.20;96.60;;;;;;5073797;28;20218;-64
2023/06/06 08:32:44;;;;;;;1.63;0.77;;;25.20;96.50;;;;;;5073850;28;20680;-64
2023/06/06 08:35:12;;;;;;;0.98;0.70;;;25.20;95.40;;;;;;5072972;28;20234;-64
2023/06/06 08:37:40;;;;;;;0.80;0.60;;;25.30;94.90;;;;;;5073458;28;20689;-64
2023/06/06 08:40:10;;;;;;;0.80;0.60;;;25.30;95.80;;;;;;5073652;28;20678;-65
2023/06/06 08:42:43;;;;;;;0.98;0.77;;;25.40;95.90;;;;;;5073617;28;20202;-64
2023/06/06 08:45:11;;;;;;;0.70;0.55;;;25.50;94.90;;;;;;5073169;28;20253;-64
2023/06/06 08:47:41;;;;;;;1.00;0.90;;;25.70;96.00;;;;;;5073138;28;20226;-64
2023/06/06 08:50:12;;;;;;;0.70;0.60;;;25.80;95.70;;;;;;5073164;28;20210;-65
2023/06/06 08:52:41;;;;;;;1.02;0.93;;;26.00;96.00;;;;;;5073546;28;20212;-64
2023/06/06 08:55:10;;;;;;;0.70;0.60;;;25.90;94.30;;;;;;5072926;28;20223;-64
2023/06/06 08:57:41;;;;;;;0.70;0.60;;;26.10;94.90;;;;;;5073101;28;20264;-65
2023/06/06 09:00:18;;;;;;;0.70;0.52;;;26.20;94.20;;;;;;5073296;28;20211;-64
2023/06/06 09:02:47;;;;;;;0.80;0.50;;;26.10;94.30;;;;;;5073297;28;20285;-65
2023/06/06 09:05:19;;;;;;;0.70;0.70;;;26.40;93.10;;;;;;5072583;28;20763;-64
2023/06/06 09:07:49;;;;;;;0.60;0.50;;;26.50;93.30;;;;;;5073115;28;20199;-64
2023/06/06 09:10:17;;;;;;;0.70;0.60;;;26.40;93.50;;;;;;5073193;28;20723;-64
2023/06/06 09:12:47;;;;;;;0.73;0.60;;;26.60;92.20;;;;;;5073162;28;20242;-64
2023/06/06 09:15:15;;;;;;;2.95;0.70;;;26.60;92.90;;;;;;5072614;28;20230;-65
2023/06/06 09:17:46;;;;;;;0.75;0.60;;;26.70;91.50;;;;;;5072652;28;20198;-64
2023/06/06 09:20:17;;;;;;;0.70;0.50;;;26.90;93.20;;;;;;5072557;28;20231;-64
2023/06/06 09:22:47;;;;;;;0.98;0.98;;;27.00;91.60;;;;;;5073014;28;20199;-64
2023/06/06 09:25:19;;;;;;;0.80;0.60;;;27.10;91.80;;;;;;5072502;28;20285;-64
2023/06/06 09:27:48;;;;;;;0.90;0.80;;;27.10;91.00;;;;;;5072688;28;20205;-65
2023/06/06 09:30:20;;;;;;;1.20;0.90;;;27.20;92.00;;;;;;5072828;28;20207;-64
2023/06/06 09:32:53;;;;;;;0.80;0.70;;;27.60;91.70;;;;;;5073145;28;20234;-65
2023/06/06 09:35:22;;;;;;;0.80;0.75;;;27.70;90.80;;;;;;5071817;28;20224;-65
2023/06/06 09:37:50;;;;;;;0.60;0.50;;;28.00;93.50;;;;;;5072375;28;20204;-65
2023/06/06 09:40:20;;;;;;;0.70;0.60;;;28.10;88.80;;;;;;5072680;28;20256;-65
2023/06/06 09:42:49;;;;;;;0.70;0.70;;;27.90;90.60;;;;;;5072783;28;20684;-64
2023/06/06 09:45:19;;;;;;;0.90;0.60;;;27.70;90.60;;;;;;5072100;28;20338;-65
2023/06/06 09:47:48;;;;;;;0.70;0.60;;;27.60;89.40;;;;;;5072078;28;20208;-65
2023/06/06 09:50:20;;;;;;;0.60;0.50;;;27.90;89.00;;;;;;5069119;28;20203;-64
2023/06/06 09:52:52;;;;;;;0.60;0.50;;;27.60;87.70;;;;;;5072437;28;20200;-65
2023/06/06 09:55:22;;;;;;;0.80;0.70;;;27.80;90.20;;;;;;5071695;28;20254;-64
2023/06/06 09:57:55;;;;;;;1.00;0.70;;;28.00;89.00;;;;;;5071822;28;20524;-64
2023/06/06 10:00:26;;;;;;;2.25;0.85;;;28.40;90.30;;;;;;5072305;28;20669;-64
2023/06/06 10:02:54;;;;;;;0.80;0.70;;;28.40;85.00;;;;;;5072304;28;20202;-64
2023/06/06 10:05:23;;;;;;;0.80;0.60;;;28.30;84.10;;;;;;5071437;28;20736;-65
2023/06/06 10:07:54;;;;;;;0.93;0.80;;;28.50;85.50;;;;;;5071519;28;20207;-64
2023/06/06 10:10:22;;;;;;;1.33;0.50;;;28.70;83.90;;;;;;5071892;28;20202;-64
2023/06/06 10:12:51;;;;;;;1.33;0.55;;;29.00;81.70;;;;;;5071792;28;20207;-64
2023/06/06 10:15:20;;;;;;;0.70;0.50;;;29.20;81.60;;;;;;5071413;28;20228;-65
2023/06/06 10:17:51;;;;;;;0.73;0.60;;;28.90;80.80;;;;;;5071356;28;20596;-64
2023/06/06 10:20:20;;;;;;;0.82;0.68;;;28.40;79.80;;;;;;5071412;28;20740;-64
2023/06/06 10:22:48;;;;;;;0.90;0.80;;;28.60;80.00;;;;;;5071737;28;20674;-64
2023/06/06 10:25:17;;;;;;;1.08;0.55;;;29.00;82.00;;;;;;5071243;28;20258;-65
2023/06/06 10:27:52;;;;;;;0.80;0.65;;;29.10;82.10;;;;;;5070747;28;20497;-64
2023/06/06 10:30:32;;;;;;;0.60;0.60;;;29.40;80.20;;;;;;5071696;28;20208;-65
2023/06/06 10:33:13;;;;;;;0.90;0.50;;;29.60;80.10;;;;;;5071392;28;21038;-65
2023/06/06 10:35:44;;;;;;;0.60;0.50;;;29.50;79.20;;;;;;5063814;28;20250;-64
2023/06/06 10:38:16;;;;;;;2.67;0.60;;;29.10;77.00;;;;;;5071164;28;20289;-64
2023/06/06 10:40:51;;;;;;;0.70;0.60;;;28.80;76.80;;;;;;5071537;28;20586;-65
2023/06/06 10:43:51;;;;;;;1.00;0.75;;;28.60;78.80;;;;;;5071106;28;20289;-64
2023/06/06 10:46:19;;;;;;;1.05;0.60;;;28.80;78.40;;;;;;5071756;28;20203;-64
2023/06/06 10:48:56;;;;;;;0.70;0.60;;;28.70;79.90;;;;;;5071460;28;20240;-64
2023/06/06 10:51:32;;;;;;;0.60;0.45;;;28.80;78.20;;;;;;5070877;28;20210;-64
2023/06/06 10:54:16;;;;;;;0.73;0.68;;;28.90;77.10;;;;;;5071061;28;20649;-64
2023/06/06 10:56:52;;;;;;;1.20;1.10;;;29.10;78.10;;;;;;5063562;28;20211;-64
2023/06/06 10:59:27;;;;;;;0.73;0.65;;;29.00;77.20;;;;;;5071147;28;20210;-64
2023/06/06 11:01:56;;;;;;;0.73;0.70;;;28.60;75.20;;;;;;5071231;28;20241;-64
2023/06/06 11:04:25;;;;;;;0.73;0.65;;;28.50;76.20;;;;;;5070155;28;20223;-64
2023/06/06 11:07:00;;;;;;;1.23;1.15;;;28.50;77.90;;;;;;5070721;28;20205;-64
2023/06/06 11:09:31;;;;;;;1.70;1.60;;;28.60;78.70;;;;;;5070930;28;20260;-64
2023/06/06 11:12:27;;;;;;;0.68;0.50;;;28.90;78.60;;;;;;5071081;28;20207;-64
2023/06/06 11:14:59;;;;;;;0.70;0.50;;;28.80;75.60;;;;;;5064786;28;20314;-64
2023/06/06 11:17:29;;;;;;;0.60;0.47;;;28.90;76.40;;;;;;5070305;28;20229;-64
2023/06/06 11:19:59;;;;;;;1.75;1.08;;;29.00;75.50;;;;;;5070745;28;20285;-64
2023/06/06 11:22:28;;;;;;;0.70;0.63;;;29.30;75.00;;;;;;5070609;28;20249;-64
2023/06/06 11:24:57;;;;;;;0.80;0.65;;;29.40;75.60;;;;;;5070358;28;20314;-64
2023/06/06 11:27:27;;;;;;;0.60;0.50;;;29.70;74.90;;;;;;5070228;28;20203;-64
2023/06/06 11:29:56;;;;;;;0.60;0.55;;;29.50;75.10;;;;;;5070775;28;20302;-64
2023/06/06 11:32:25;;;;;;;0.90;0.70;;;29.50;76.50;;;;;;5070562;28;20205;-63
2023/06/06 11:34:53;;;;;;;0.60;0.50;;;29.10;74.60;;;;;;5070127;28;20227;-64
2023/06/06 11:37:21;;;;;;;1.00;0.50;;;28.90;76.50;;;;;;5070044;28;20229;-64
2023/06/06 11:39:50;;;;;;;0.68;0.60;;;29.10;76.40;;;;;;5070397;28;20210;-64
2023/06/06 11:42:19;;;;;;;0.75;0.60;;;29.20;75.50;;;;;;5070400;28;20210;-63
2023/06/06 11:44:48;;;;;;;1.17;1.05;;;29.50;75.40;;;;;;5069880;28;20238;-64
2023/06/06 11:47:16;;;;;;;1.05;0.95;;;29.70;72.70;;;;;;5070048;28;20214;-64
2023/06/06 11:49:47;;;;;;;0.60;0.50;;;29.70;72.30;;;;;;5070423;28;20207;-64
2023/06/06 11:52:16;;;;;;;1.60;0.60;;;29.90;72.90;;;;;;5070129;28;20213;-63
2023/06/06 11:54:53;;;;;;;0.75;0.75;;;29.70;71.70;;;;;;5070146;28;20219;-64
2023/06/06 11:57:21;;;;;;;0.60;0.50;;;29.90;73.00;;;;;;5070047;28;20218;-64
2023/06/06 11:59:59;;;;;;;0.70;0.60;;;30.00;72.20;;;;;;5070586;28;20289;-64
2023/06/06 12:02:27;;;;;;;0.70;0.60;;;29.80;70.30;;;;;;5070252;28;20733;-64
2023/06/06 12:04:55;;;;;;;0.70;0.65;;;29.80;71.40;;;;;;5069778;28;20250;-64
2023/06/06 12:07:23;;;;;;;0.70;0.60;;;29.40;67.90;;;;;;5069972;28;20211;-63
2023/06/06 12:09:58;;;;;;;0.60;0.43;;;29.20;68.00;;;;;;5070406;28;20656;-64
2023/06/06 12:12:26;;;;;;;0.80;0.60;;;28.80;68.20;;;;;;5070101;28;20211;-64
2023/06/06 12:14:59;;;;;;;1.27;0.98;;;29.00;71.20;;;;;;5069768;28;20298;-64
2023/06/06 12:17:28;;;;;;;0.70;0.63;;;29.40;73.00;;;;;;5069849;28;20225;-64
2023/06/06 12:19:57;;;;;;;0.70;0.57;;;29.70;67.80;;;;;;5070205;28;20286;-64
2023/06/06 12:22:29;;;;;;;1.00;0.70;;;29.50;67.10;;;;;;5070061;28;20207;-64
2023/06/06 12:24:57;;;;;;;0.70;0.60;;;29.60;68.60;;;;;;5069912;28;20286;-64
2023/06/06 12:27:27;;;;;;;0.77;0.70;;;29.60;67.40;;;;;;5069581;28;20214;-64
2023/06/06 12:29:55;;;;;;;0.90;0.80;;;29.80;68.10;;;;;;5070061;28;20306;-64
2023/06/06 12:32:26;;;;;;;0.88;0.88;;;29.80;65.60;;;;;;5069949;28;20310;-63
2023/06/06 12:35:00;;;;;;;0.60;0.60;;;30.20;66.20;;;;;;5069744;28;20356;-64
2023/06/06 12:37:39;;;;;;;0.73;0.50;;;30.00;62.60;;;;;;5069582;28;20223;-64
2023/06/06 12:40:19;;;;;;;0.70;0.65;;;30.30;62.60;;;;;;5069829;28;20294;-64
2023/06/06 12:42:54;;;;;;;1.23;1.00;;;30.40;63.70;;;;;;5063000;28;20231;-64
2023/06/06 12:45:22;;;;;;;0.70;0.70;;;30.40;62.10;;;;;;5069262;28;20237;-64
2023/06/06 12:47:52;;;;;;;0.70;0.60;;;30.20;63.50;;;;;;5069765;28;20634;-64
2023/06/06 12:50:21;;;;;;;0.70;0.70;;;30.60;64.30;;;;;;5070500;28;20667;-64
2023/06/06 12:52:49;;;;;;;0.70;0.50;;;30.20;63.10;;;;;;5073357;28;21167;-64
2023/06/06 12:55:20;;;;;;;0.65;0.50;;;30.10;65.00;;;;;;5073131;28;20223;-63
2023/06/06 12:57:48;;;;;;;0.70;0.57;;;30.00;63.70;;;;;;5073079;28;20220;-64
2023/06/06 13:00:17;;;;;;;1.00;0.70;;;30.30;65.00;;;;;;5073158;28;20203;-64